sensor_id;sensor_type;location;lat;lon;timestamp;P1;durP1;ratioP1;P2;durP2;ratioP2
76256;SDS011;65074;50.436;8.672;2023-05-27T00:00:18;5.55;;;2.45;;
76256;SDS011;65074;50.436;8.672;2023-05-27T00:02:44;9.20;;;3.13;;
76256;SDS011;65074;50.436;8.672;2023-05-27T00:05:10;7.18;;;2.72;;
76256;SDS011;65074;50.436;8.672;2023-05-27T00:07:35;6.78;;;2.95;;
76256;SDS011;65074;50.436;8.672;2023-05-27T00:10:01;5.07;;;2.20;;
76256;SDS011;65074;50.436;8.672;2023-05-27T00:12:26;5.97;;;2.40;;
76256;SDS011;65074;50.436;8.672;2023-05-27T00:14:51;6.88;;;2.67;;
76256;SDS011;65074;50.436;8.672;2023-05-27T00:17:17;6.25;;;2.90;;
76256;SDS011;65074;50.436;8.672;2023-05-27T00:19:42;4.80;;;2.42;;
76256;SDS011;65074;50.436;8.672;2023-05-27T00:22:12;8.25;;;2.25;;
76256;SDS011;65074;50.436;8.672;2023-05-27T00:24:39;9.73;;;2.97;;
76256;SDS011;65074;50.436;8.672;2023-05-27T00:27:06;6.35;;;2.63;;
76256;SDS011;65074;50.436;8.672;2023-05-27T00:29:32;8.73;;;2.60;;
76256;SDS011;65074;50.436;8.672;2023-05-27T00:31:59;7.65;;;2.58;;
76256;SDS011;65074;50.436;8.672;2023-05-27T00:34:25;9.52;;;2.90;;
76256;SDS011;65074;50.436;8.672;2023-05-27T00:36:50;12.10;;;3.20;;
76256;SDS011;65074;50.436;8.672;2023-05-27T00:39:16;4.78;;;2.60;;
76256;SDS011;65074;50.436;8.672;2023-05-27T00:41:43;5.28;;;2.60;;
76256;SDS011;65074;50.436;8.672;2023-05-27T00:44:13;6.80;;;2.38;;
76256;SDS011;65074;50.436;8.672;2023-05-27T00:46:38;9.55;;;3.15;;
76256;SDS011;65074;50.436;8.672;2023-05-27T00:49:04;10.63;;;2.67;;
76256;SDS011;65074;50.436;8.672;2023-05-27T00:51:30;7.95;;;3.05;;
76256;SDS011;65074;50.436;8.672;2023-05-27T00:53:56;7.32;;;2.75;;
76256;SDS011;65074;50.436;8.672;2023-05-27T00:56:21;10.55;;;4.03;;
76256;SDS011;65074;50.436;8.672;2023-05-27T00:58:47;12.32;;;2.60;;
76256;SDS011;65074;50.436;8.672;2023-05-27T01:01:12;9.40;;;2.80;;
76256;SDS011;65074;50.436;8.672;2023-05-27T01:03:38;11.00;;;2.90;;
76256;SDS011;65074;50.436;8.672;2023-05-27T01:06:32;12.68;;;3.25;;
76256;SDS011;65074;50.436;8.672;2023-05-27T01:09:57;6.70;;;2.78;;
76256;SDS011;65074;50.436;8.672;2023-05-27T01:12:18;12.43;;;3.30;;
76256;SDS011;65074;50.436;8.672;2023-05-27T01:14:53;7.18;;;3.20;;
76256;SDS011;65074;50.436;8.672;2023-05-27T01:17:22;6.05;;;2.70;;
76256;SDS011;65074;50.436;8.672;2023-05-27T01:22:19;10.02;;;3.35;;
76256;SDS011;65074;50.436;8.672;2023-05-27T01:24:48;6.47;;;2.88;;
76256;SDS011;65074;50.436;8.672;2023-05-27T01:27:14;9.60;;;2.80;;
76256;SDS011;65074;50.436;8.672;2023-05-27T01:29:41;5.32;;;2.72;;
76256;SDS011;65074;50.436;8.672;2023-05-27T01:37:39;5.97;;;2.38;;
76256;SDS011;65074;50.436;8.672;2023-05-27T01:42:37;5.30;;;2.63;;
76256;SDS011;65074;50.436;8.672;2023-05-27T01:45:04;10.75;;;2.85;;
76256;SDS011;65074;50.436;8.672;2023-05-27T01:47:31;8.45;;;3.35;;
76256;SDS011;65074;50.436;8.672;2023-05-27T01:49:57;7.97;;;3.22;;
76256;SDS011;65074;50.436;8.672;2023-05-27T01:52:22;7.63;;;2.67;;
76256;SDS011;65074;50.436;8.672;2023-05-27T01:54:48;7.45;;;2.67;;
76256;SDS011;65074;50.436;8.672;2023-05-27T01:57:13;8.73;;;2.75;;
76256;SDS011;65074;50.436;8.672;2023-05-27T01:59:39;7.85;;;2.80;;
76256;SDS011;65074;50.436;8.672;2023-05-27T02:02:04;12.43;;;3.22;;
76256;SDS011;65074;50.436;8.672;2023-05-27T02:04:30;6.07;;;2.35;;
76256;SDS011;65074;50.436;8.672;2023-05-27T02:06:55;10.93;;;3.40;;
76256;SDS011;65074;50.436;8.672;2023-05-27T02:09:23;7.22;;;3.00;;
76256;SDS011;65074;50.436;8.672;2023-05-27T02:11:48;6.85;;;3.33;;
76256;SDS011;65074;50.436;8.672;2023-05-27T02:14:14;9.18;;;3.13;;
76256;SDS011;65074;50.436;8.672;2023-05-27T02:16:39;9.68;;;3.15;;
76256;SDS011;65074;50.436;8.672;2023-05-27T02:19:05;7.70;;;3.40;;
76256;SDS011;65074;50.436;8.672;2023-05-27T02:21:31;9.15;;;3.10;;
76256;SDS011;65074;50.436;8.672;2023-05-27T02:23:57;13.38;;;3.85;;
76256;SDS011;65074;50.436;8.672;2023-05-27T02:26:23;9.88;;;4.15;;
76256;SDS011;65074;50.436;8.672;2023-05-27T02:28:48;9.75;;;3.50;;
76256;SDS011;65074;50.436;8.672;2023-05-27T02:31:14;10.38;;;3.00;;
76256;SDS011;65074;50.436;8.672;2023-05-27T02:33:39;11.05;;;3.58;;
76256;SDS011;65074;50.436;8.672;2023-05-27T02:36:06;8.07;;;3.25;;
76256;SDS011;65074;50.436;8.672;2023-05-27T02:38:31;6.95;;;3.30;;
76256;SDS011;65074;50.436;8.672;2023-05-27T02:40:57;7.97;;;3.83;;
76256;SDS011;65074;50.436;8.672;2023-05-27T02:43:22;9.23;;;3.55;;
76256;SDS011;65074;50.436;8.672;2023-05-27T02:45:47;11.82;;;3.22;;
76256;SDS011;65074;50.436;8.672;2023-05-27T02:48:13;8.00;;;3.47;;
76256;SDS011;65074;50.436;8.672;2023-05-27T02:50:38;10.57;;;3.72;;
76256;SDS011;65074;50.436;8.672;2023-05-27T02:53:04;9.93;;;3.80;;
76256;SDS011;65074;50.436;8.672;2023-05-27T02:55:30;10.35;;;3.50;;
76256;SDS011;65074;50.436;8.672;2023-05-27T02:57:56;9.60;;;3.75;;
76256;SDS011;65074;50.436;8.672;2023-05-27T03:00:21;12.40;;;3.50;;
76256;SDS011;65074;50.436;8.672;2023-05-27T03:02:47;10.88;;;3.22;;
76256;SDS011;65074;50.436;8.672;2023-05-27T03:05:14;11.85;;;3.53;;
76256;SDS011;65074;50.436;8.672;2023-05-27T03:07:40;11.77;;;3.78;;
76256;SDS011;65074;50.436;8.672;2023-05-27T03:10:06;9.88;;;3.58;;
76256;SDS011;65074;50.436;8.672;2023-05-27T03:12:32;8.65;;;3.67;;
76256;SDS011;65074;50.436;8.672;2023-05-27T03:14:58;9.35;;;3.65;;
76256;SDS011;65074;50.436;8.672;2023-05-27T03:17:24;11.85;;;3.75;;
76256;SDS011;65074;50.436;8.672;2023-05-27T03:19:50;8.43;;;3.58;;
76256;SDS011;65074;50.436;8.672;2023-05-27T03:22:16;10.95;;;3.53;;
76256;SDS011;65074;50.436;8.672;2023-05-27T03:24:42;8.40;;;3.70;;
76256;SDS011;65074;50.436;8.672;2023-05-27T03:27:08;8.95;;;3.75;;
76256;SDS011;65074;50.436;8.672;2023-05-27T03:29:36;7.45;;;3.63;;
76256;SDS011;65074;50.436;8.672;2023-05-27T03:32:02;11.32;;;3.70;;
76256;SDS011;65074;50.436;8.672;2023-05-27T03:34:29;9.25;;;3.53;;
76256;SDS011;65074;50.436;8.672;2023-05-27T03:36:55;10.35;;;3.72;;
76256;SDS011;65074;50.436;8.672;2023-05-27T03:39:27;6.70;;;3.67;;
76256;SDS011;65074;50.436;8.672;2023-05-27T03:41:55;10.70;;;3.40;;
76256;SDS011;65074;50.436;8.672;2023-05-27T03:44:21;10.75;;;3.63;;
76256;SDS011;65074;50.436;8.672;2023-05-27T03:46:47;9.70;;;4.47;;
76256;SDS011;65074;50.436;8.672;2023-05-27T03:49:13;8.98;;;3.20;;
76256;SDS011;65074;50.436;8.672;2023-05-27T03:51:39;13.25;;;4.18;;
76256;SDS011;65074;50.436;8.672;2023-05-27T03:54:05;12.68;;;3.75;;
76256;SDS011;65074;50.436;8.672;2023-05-27T03:56:30;12.93;;;4.53;;
76256;SDS011;65074;50.436;8.672;2023-05-27T03:58:55;10.43;;;3.50;;
76256;SDS011;65074;50.436;8.672;2023-05-27T04:01:21;15.88;;;3.90;;
76256;SDS011;65074;50.436;8.672;2023-05-27T04:03:47;12.20;;;3.88;;
76256;SDS011;65074;50.436;8.672;2023-05-27T04:06:13;14.40;;;4.35;;
76256;SDS011;65074;50.436;8.672;2023-05-27T04:08:39;10.90;;;3.83;;
76256;SDS011;65074;50.436;8.672;2023-05-27T04:11:06;10.10;;;3.78;;
76256;SDS011;65074;50.436;8.672;2023-05-27T04:13:31;9.43;;;4.25;;
76256;SDS011;65074;50.436;8.672;2023-05-27T04:15:56;10.20;;;3.15;;
76256;SDS011;65074;50.436;8.672;2023-05-27T04:18:22;10.27;;;3.33;;
76256;SDS011;65074;50.436;8.672;2023-05-27T04:20:48;6.03;;;3.22;;
76256;SDS011;65074;50.436;8.672;2023-05-27T04:23:15;14.13;;;4.70;;
76256;SDS011;65074;50.436;8.672;2023-05-27T04:25:42;10.48;;;4.07;;
76256;SDS011;65074;50.436;8.672;2023-05-27T04:28:10;11.75;;;3.63;;
76256;SDS011;65074;50.436;8.672;2023-05-27T04:30:39;10.75;;;4.10;;
76256;SDS011;65074;50.436;8.672;2023-05-27T04:33:10;8.48;;;3.47;;
76256;SDS011;65074;50.436;8.672;2023-05-27T04:35:36;17.92;;;4.13;;
76256;SDS011;65074;50.436;8.672;2023-05-27T04:38:03;5.50;;;3.35;;
76256;SDS011;65074;50.436;8.672;2023-05-27T04:40:38;10.07;;;4.03;;
76256;SDS011;65074;50.436;8.672;2023-05-27T04:43:18;11.20;;;3.63;;
76256;SDS011;65074;50.436;8.672;2023-05-27T04:45:44;9.57;;;3.40;;
76256;SDS011;65074;50.436;8.672;2023-05-27T04:48:10;8.32;;;3.65;;
76256;SDS011;65074;50.436;8.672;2023-05-27T04:50:36;10.43;;;3.60;;
76256;SDS011;65074;50.436;8.672;2023-05-27T04:53:01;8.70;;;3.90;;
76256;SDS011;65074;50.436;8.672;2023-05-27T04:55:28;9.77;;;3.45;;
76256;SDS011;65074;50.436;8.672;2023-05-27T04:57:54;12.95;;;4.07;;
76256;SDS011;65074;50.436;8.672;2023-05-27T05:00:21;7.38;;;3.70;;
76256;SDS011;65074;50.436;8.672;2023-05-27T05:03:11;10.20;;;3.75;;
76256;SDS011;65074;50.436;8.672;2023-05-27T05:05:45;10.50;;;4.18;;
76256;SDS011;65074;50.436;8.672;2023-05-27T05:08:18;8.32;;;3.65;;
76256;SDS011;65074;50.436;8.672;2023-05-27T05:10:48;10.80;;;4.05;;
76256;SDS011;65074;50.436;8.672;2023-05-27T05:13:15;9.02;;;3.70;;
76256;SDS011;65074;50.436;8.672;2023-05-27T05:15:41;14.82;;;4.10;;
76256;SDS011;65074;50.436;8.672;2023-05-27T05:18:09;12.60;;;4.15;;
76256;SDS011;65074;50.436;8.672;2023-05-27T05:20:36;12.50;;;4.35;;
76256;SDS011;65074;50.436;8.672;2023-05-27T05:23:02;13.02;;;4.30;;
76256;SDS011;65074;50.436;8.672;2023-05-27T05:25:28;7.13;;;3.28;;
76256;SDS011;65074;50.436;8.672;2023-05-27T05:27:55;11.43;;;3.83;;
76256;SDS011;65074;50.436;8.672;2023-05-27T05:30:21;5.95;;;3.60;;
76256;SDS011;65074;50.436;8.672;2023-05-27T05:32:47;6.32;;;3.08;;
76256;SDS011;65074;50.436;8.672;2023-05-27T05:35:13;9.20;;;4.28;;
76256;SDS011;65074;50.436;8.672;2023-05-27T05:37:44;7.22;;;3.55;;
76256;SDS011;65074;50.436;8.672;2023-05-27T05:40:10;11.38;;;3.88;;
76256;SDS011;65074;50.436;8.672;2023-05-27T05:42:43;9.25;;;4.53;;
76256;SDS011;65074;50.436;8.672;2023-05-27T05:45:08;11.95;;;4.50;;
76256;SDS011;65074;50.436;8.672;2023-05-27T05:47:35;10.73;;;3.50;;
76256;SDS011;65074;50.436;8.672;2023-05-27T05:50:08;12.57;;;3.63;;
76256;SDS011;65074;50.436;8.672;2023-05-27T05:52:35;10.98;;;4.55;;
76256;SDS011;65074;50.436;8.672;2023-05-27T05:55:00;11.95;;;3.95;;
76256;SDS011;65074;50.436;8.672;2023-05-27T05:57:26;7.18;;;3.30;;
76256;SDS011;65074;50.436;8.672;2023-05-27T05:59:51;11.82;;;4.30;;
76256;SDS011;65074;50.436;8.672;2023-05-27T06:02:17;10.82;;;3.53;;
76256;SDS011;65074;50.436;8.672;2023-05-27T06:04:42;8.30;;;3.92;;
76256;SDS011;65074;50.436;8.672;2023-05-27T06:07:08;9.88;;;5.03;;
76256;SDS011;65074;50.436;8.672;2023-05-27T06:09:39;15.35;;;5.20;;
76256;SDS011;65074;50.436;8.672;2023-05-27T06:12:10;8.35;;;3.78;;
76256;SDS011;65074;50.436;8.672;2023-05-27T06:14:42;10.20;;;3.50;;
76256;SDS011;65074;50.436;8.672;2023-05-27T06:17:09;13.05;;;3.58;;
76256;SDS011;65074;50.436;8.672;2023-05-27T06:19:35;14.82;;;5.18;;
76256;SDS011;65074;50.436;8.672;2023-05-27T06:22:01;8.43;;;4.05;;
76256;SDS011;65074;50.436;8.672;2023-05-27T06:24:57;13.52;;;3.85;;
76256;SDS011;65074;50.436;8.672;2023-05-27T06:27:33;8.95;;;4.43;;
76256;SDS011;65074;50.436;8.672;2023-05-27T06:29:59;8.20;;;3.42;;
76256;SDS011;65074;50.436;8.672;2023-05-27T06:32:34;11.65;;;3.95;;
76256;SDS011;65074;50.436;8.672;2023-05-27T06:35:00;10.70;;;4.03;;
76256;SDS011;65074;50.436;8.672;2023-05-27T06:37:25;9.25;;;3.83;;
76256;SDS011;65074;50.436;8.672;2023-05-27T06:39:51;10.57;;;3.80;;
76256;SDS011;65074;50.436;8.672;2023-05-27T06:42:16;9.32;;;3.63;;
76256;SDS011;65074;50.436;8.672;2023-05-27T06:44:54;8.05;;;3.70;;
76256;SDS011;65074;50.436;8.672;2023-05-27T06:47:23;9.77;;;3.90;;
76256;SDS011;65074;50.436;8.672;2023-05-27T06:49:49;9.15;;;3.75;;
76256;SDS011;65074;50.436;8.672;2023-05-27T06:52:14;9.75;;;3.72;;
76256;SDS011;65074;50.436;8.672;2023-05-27T06:55:01;8.95;;;3.50;;
76256;SDS011;65074;50.436;8.672;2023-05-27T06:58:02;9.07;;;3.55;;
76256;SDS011;65074;50.436;8.672;2023-05-27T07:00:46;9.00;;;3.80;;
76256;SDS011;65074;50.436;8.672;2023-05-27T07:03:31;13.35;;;4.03;;
76256;SDS011;65074;50.436;8.672;2023-05-27T07:05:57;8.32;;;3.42;;
76256;SDS011;65074;50.436;8.672;2023-05-27T07:08:24;8.90;;;4.35;;
76256;SDS011;65074;50.436;8.672;2023-05-27T07:11:03;10.45;;;3.88;;
76256;SDS011;65074;50.436;8.672;2023-05-27T07:13:29;10.02;;;3.75;;
76256;SDS011;65074;50.436;8.672;2023-05-27T07:15:54;5.82;;;3.10;;
76256;SDS011;65074;50.436;8.672;2023-05-27T07:18:20;7.50;;;3.15;;
76256;SDS011;65074;50.436;8.672;2023-05-27T07:20:47;10.98;;;3.63;;
76256;SDS011;65074;50.436;8.672;2023-05-27T07:23:14;9.05;;;3.42;;
76256;SDS011;65074;50.436;8.672;2023-05-27T07:25:43;9.98;;;3.38;;
76256;SDS011;65074;50.436;8.672;2023-05-27T07:28:09;6.63;;;3.03;;
76256;SDS011;65074;50.436;8.672;2023-05-27T07:30:41;7.88;;;3.22;;
76256;SDS011;65074;50.436;8.672;2023-05-27T07:33:06;8.85;;;3.20;;
76256;SDS011;65074;50.436;8.672;2023-05-27T07:35:32;7.45;;;3.70;;
76256;SDS011;65074;50.436;8.672;2023-05-27T07:37:58;9.60;;;3.08;;
76256;SDS011;65074;50.436;8.672;2023-05-27T07:40:23;9.52;;;3.60;;
76256;SDS011;65074;50.436;8.672;2023-05-27T07:42:49;9.95;;;4.25;;
76256;SDS011;65074;50.436;8.672;2023-05-27T07:45:15;7.18;;;3.85;;
76256;SDS011;65074;50.436;8.672;2023-05-27T07:47:40;6.63;;;3.45;;
76256;SDS011;65074;50.436;8.672;2023-05-27T07:50:06;7.97;;;3.08;;
76256;SDS011;65074;50.436;8.672;2023-05-27T07:52:35;8.48;;;3.65;;
76256;SDS011;65074;50.436;8.672;2023-05-27T07:55:08;6.85;;;2.67;;
76256;SDS011;65074;50.436;8.672;2023-05-27T07:57:34;6.30;;;2.75;;
76256;SDS011;65074;50.436;8.672;2023-05-27T07:59:59;10.02;;;2.72;;
76256;SDS011;65074;50.436;8.672;2023-05-27T08:02:40;6.07;;;2.95;;
76256;SDS011;65074;50.436;8.672;2023-05-27T08:05:07;9.05;;;2.72;;
76256;SDS011;65074;50.436;8.672;2023-05-27T08:07:56;7.68;;;2.85;;
76256;SDS011;65074;50.436;8.672;2023-05-27T08:10:53;9.05;;;3.38;;
76256;SDS011;65074;50.436;8.672;2023-05-27T08:13:41;9.95;;;2.75;;
76256;SDS011;65074;50.436;8.672;2023-05-27T08:16:33;7.60;;;2.78;;
76256;SDS011;65074;50.436;8.672;2023-05-27T08:19:22;8.13;;;2.38;;
76256;SDS011;65074;50.436;8.672;2023-05-27T08:22:08;7.55;;;3.25;;
76256;SDS011;65074;50.436;8.672;2023-05-27T08:24:52;8.35;;;3.72;;
76256;SDS011;65074;50.436;8.672;2023-05-27T08:27:45;8.27;;;3.05;;
76256;SDS011;65074;50.436;8.672;2023-05-27T08:30:21;9.45;;;2.70;;
76256;SDS011;65074;50.436;8.672;2023-05-27T08:32:55;5.28;;;2.92;;
76256;SDS011;65074;50.436;8.672;2023-05-27T08:35:21;9.73;;;2.75;;
76256;SDS011;65074;50.436;8.672;2023-05-27T08:37:47;5.88;;;2.97;;
76256;SDS011;65074;50.436;8.672;2023-05-27T08:40:14;12.23;;;3.53;;
76256;SDS011;65074;50.436;8.672;2023-05-27T08:42:45;6.50;;;3.05;;
76256;SDS011;65074;50.436;8.672;2023-05-27T08:45:12;10.52;;;2.88;;
76256;SDS011;65074;50.436;8.672;2023-05-27T08:47:39;6.88;;;3.20;;
76256;SDS011;65074;50.436;8.672;2023-05-27T08:50:08;8.00;;;2.72;;
76256;SDS011;65074;50.436;8.672;2023-05-27T08:52:36;5.68;;;2.42;;
76256;SDS011;65074;50.436;8.672;2023-05-27T08:55:07;11.75;;;3.10;;
76256;SDS011;65074;50.436;8.672;2023-05-27T08:57:35;8.88;;;2.90;;
76256;SDS011;65074;50.436;8.672;2023-05-27T09:00:03;9.20;;;3.00;;
76256;SDS011;65074;50.436;8.672;2023-05-27T09:02:37;6.18;;;2.20;;
76256;SDS011;65074;50.436;8.672;2023-05-27T09:05:03;6.90;;;2.67;;
76256;SDS011;65074;50.436;8.672;2023-05-27T09:07:28;8.32;;;2.80;;
76256;SDS011;65074;50.436;8.672;2023-05-27T09:09:57;6.97;;;3.03;;
76256;SDS011;65074;50.436;8.672;2023-05-27T09:12:24;6.03;;;3.25;;
76256;SDS011;65074;50.436;8.672;2023-05-27T09:14:50;7.53;;;2.70;;
76256;SDS011;65074;50.436;8.672;2023-05-27T09:17:16;6.20;;;3.00;;
76256;SDS011;65074;50.436;8.672;2023-05-27T09:19:42;7.43;;;2.60;;
76256;SDS011;65074;50.436;8.672;2023-05-27T09:22:17;6.05;;;2.53;;
76256;SDS011;65074;50.436;8.672;2023-05-27T09:25:03;4.72;;;2.70;;
76256;SDS011;65074;50.436;8.672;2023-05-27T09:27:30;5.78;;;2.35;;
76256;SDS011;65074;50.436;8.672;2023-05-27T09:29:57;7.50;;;2.80;;
76256;SDS011;65074;50.436;8.672;2023-05-27T09:32:24;4.05;;;2.03;;
76256;SDS011;65074;50.436;8.672;2023-05-27T09:34:54;6.45;;;2.50;;
76256;SDS011;65074;50.436;8.672;2023-05-27T09:37:23;5.90;;;3.00;;
76256;SDS011;65074;50.436;8.672;2023-05-27T09:42:42;9.65;;;2.92;;
76256;SDS011;65074;50.436;8.672;2023-05-27T09:45:13;7.15;;;2.75;;
76256;SDS011;65074;50.436;8.672;2023-05-27T09:47:40;7.63;;;2.92;;
76256;SDS011;65074;50.436;8.672;2023-05-27T09:50:17;4.85;;;2.40;;
76256;SDS011;65074;50.436;8.672;2023-05-27T09:52:43;5.97;;;2.65;;
76256;SDS011;65074;50.436;8.672;2023-05-27T09:55:11;8.95;;;2.97;;
76256;SDS011;65074;50.436;8.672;2023-05-27T09:57:40;5.55;;;2.90;;
76256;SDS011;65074;50.436;8.672;2023-05-27T10:00:06;7.20;;;2.65;;
76256;SDS011;65074;50.436;8.672;2023-05-27T10:02:46;9.27;;;2.85;;
76256;SDS011;65074;50.436;8.672;2023-05-27T10:05:15;10.30;;;3.00;;
76256;SDS011;65074;50.436;8.672;2023-05-27T10:07:45;7.90;;;3.55;;
76256;SDS011;65074;50.436;8.672;2023-05-27T10:10:15;8.93;;;2.47;;
76256;SDS011;65074;50.436;8.672;2023-05-27T10:12:42;6.68;;;2.70;;
76256;SDS011;65074;50.436;8.672;2023-05-27T10:15:09;9.27;;;2.92;;
76256;SDS011;65074;50.436;8.672;2023-05-27T10:17:51;9.02;;;3.05;;
76256;SDS011;65074;50.436;8.672;2023-05-27T10:20:26;7.25;;;2.67;;
76256;SDS011;65074;50.436;8.672;2023-05-27T10:22:57;5.32;;;2.33;;
76256;SDS011;65074;50.436;8.672;2023-05-27T10:25:35;9.50;;;2.95;;
76256;SDS011;65074;50.436;8.672;2023-05-27T10:28:04;5.75;;;2.60;;
76256;SDS011;65074;50.436;8.672;2023-05-27T10:30:30;7.28;;;2.67;;
76256;SDS011;65074;50.436;8.672;2023-05-27T10:33:08;9.85;;;2.97;;
76256;SDS011;65074;50.436;8.672;2023-05-27T10:35:38;7.05;;;2.67;;
76256;SDS011;65074;50.436;8.672;2023-05-27T10:38:14;9.38;;;2.80;;
76256;SDS011;65074;50.436;8.672;2023-05-27T10:40:43;4.00;;;2.30;;
76256;SDS011;65074;50.436;8.672;2023-05-27T10:43:17;6.10;;;2.58;;
76256;SDS011;65074;50.436;8.672;2023-05-27T10:45:43;9.00;;;2.55;;
76256;SDS011;65074;50.436;8.672;2023-05-27T10:48:17;6.65;;;2.83;;
76256;SDS011;65074;50.436;8.672;2023-05-27T10:50:50;7.30;;;3.00;;
76256;SDS011;65074;50.436;8.672;2023-05-27T10:53:20;7.07;;;3.50;;
76256;SDS011;65074;50.436;8.672;2023-05-27T10:55:49;5.78;;;2.53;;
76256;SDS011;65074;50.436;8.672;2023-05-27T10:58:18;8.95;;;2.70;;
76256;SDS011;65074;50.436;8.672;2023-05-27T11:00:44;11.93;;;3.17;;
76256;SDS011;65074;50.436;8.672;2023-05-27T11:03:31;6.38;;;2.63;;
76256;SDS011;65074;50.436;8.672;2023-05-27T11:06:00;7.38;;;2.65;;
76256;SDS011;65074;50.436;8.672;2023-05-27T11:08:30;6.57;;;2.92;;
76256;SDS011;65074;50.436;8.672;2023-05-27T11:11:15;5.43;;;2.58;;
76256;SDS011;65074;50.436;8.672;2023-05-27T11:13:41;5.85;;;2.30;;
76256;SDS011;65074;50.436;8.672;2023-05-27T11:16:08;8.02;;;2.58;;
76256;SDS011;65074;50.436;8.672;2023-05-27T11:18:47;6.80;;;2.83;;
76256;SDS011;65074;50.436;8.672;2023-05-27T11:21:13;5.13;;;2.67;;
76256;SDS011;65074;50.436;8.672;2023-05-27T11:28:47;5.68;;;3.22;;
76256;SDS011;65074;50.436;8.672;2023-05-27T11:31:12;6.45;;;2.50;;
76256;SDS011;65074;50.436;8.672;2023-05-27T11:33:42;6.57;;;2.50;;
76256;SDS011;65074;50.436;8.672;2023-05-27T11:36:13;6.72;;;3.35;;
76256;SDS011;65074;50.436;8.672;2023-05-27T11:38:46;7.63;;;2.67;;
76256;SDS011;65074;50.436;8.672;2023-05-27T11:41:15;6.80;;;2.80;;
76256;SDS011;65074;50.436;8.672;2023-05-27T11:43:52;5.03;;;2.78;;
76256;SDS011;65074;50.436;8.672;2023-05-27T11:46:20;7.47;;;2.58;;
76256;SDS011;65074;50.436;8.672;2023-05-27T11:48:47;5.57;;;2.78;;
76256;SDS011;65074;50.436;8.672;2023-05-27T11:51:13;6.63;;;2.83;;
76256;SDS011;65074;50.436;8.672;2023-05-27T11:53:39;6.35;;;3.40;;
76256;SDS011;65074;50.436;8.672;2023-05-27T11:58:40;6.03;;;3.13;;
76256;SDS011;65074;50.436;8.672;2023-05-27T12:01:06;5.75;;;2.95;;
76256;SDS011;65074;50.436;8.672;2023-05-27T12:03:34;5.22;;;2.30;;
76256;SDS011;65074;50.436;8.672;2023-05-27T12:06:00;6.57;;;2.90;;
76256;SDS011;65074;50.436;8.672;2023-05-27T12:08:26;6.53;;;2.78;;
76256;SDS011;65074;50.436;8.672;2023-05-27T12:10:52;5.28;;;2.38;;
76256;SDS011;65074;50.436;8.672;2023-05-27T12:13:19;7.70;;;2.90;;
76256;SDS011;65074;50.436;8.672;2023-05-27T12:15:45;8.27;;;3.65;;
76256;SDS011;65074;50.436;8.672;2023-05-27T12:18:11;7.18;;;3.83;;
76256;SDS011;65074;50.436;8.672;2023-05-27T12:20:36;5.68;;;2.53;;
76256;SDS011;65074;50.436;8.672;2023-05-27T12:23:01;7.35;;;3.22;;
76256;SDS011;65074;50.436;8.672;2023-05-27T12:25:27;10.27;;;3.28;;
76256;SDS011;65074;50.436;8.672;2023-05-27T12:27:52;7.03;;;2.72;;
76256;SDS011;65074;50.436;8.672;2023-05-27T12:30:18;5.70;;;2.88;;
76256;SDS011;65074;50.436;8.672;2023-05-27T12:32:44;8.45;;;3.25;;
76256;SDS011;65074;50.436;8.672;2023-05-27T12:35:09;5.97;;;2.92;;
76256;SDS011;65074;50.436;8.672;2023-05-27T12:37:35;5.70;;;2.95;;
76256;SDS011;65074;50.436;8.672;2023-05-27T12:40:00;7.57;;;3.15;;
76256;SDS011;65074;50.436;8.672;2023-05-27T12:42:29;6.45;;;3.58;;
76256;SDS011;65074;50.436;8.672;2023-05-27T12:44:55;7.85;;;3.38;;
76256;SDS011;65074;50.436;8.672;2023-05-27T12:47:20;7.32;;;3.38;;
76256;SDS011;65074;50.436;8.672;2023-05-27T12:49:45;7.05;;;3.40;;
76256;SDS011;65074;50.436;8.672;2023-05-27T12:52:11;5.55;;;2.40;;
76256;SDS011;65074;50.436;8.672;2023-05-27T12:54:36;7.63;;;3.45;;
76256;SDS011;65074;50.436;8.672;2023-05-27T12:57:02;7.93;;;3.13;;
76256;SDS011;65074;50.436;8.672;2023-05-27T12:59:30;6.20;;;3.10;;
76256;SDS011;65074;50.436;8.672;2023-05-27T13:01:56;6.80;;;2.92;;
76256;SDS011;65074;50.436;8.672;2023-05-27T13:04:21;4.97;;;3.05;;
76256;SDS011;65074;50.436;8.672;2023-05-27T13:06:47;6.65;;;3.42;;
76256;SDS011;65074;50.436;8.672;2023-05-27T13:09:12;6.10;;;3.10;;
76256;SDS011;65074;50.436;8.672;2023-05-27T13:11:39;4.80;;;3.00;;
76256;SDS011;65074;50.436;8.672;2023-05-27T13:14:04;5.45;;;2.58;;
76256;SDS011;65074;50.436;8.672;2023-05-27T13:16:30;6.97;;;3.40;;
76256;SDS011;65074;50.436;8.672;2023-05-27T13:18:56;6.43;;;3.13;;
76256;SDS011;65074;50.436;8.672;2023-05-27T13:21:21;7.70;;;3.15;;
76256;SDS011;65074;50.436;8.672;2023-05-27T13:23:47;6.65;;;3.42;;
76256;SDS011;65074;50.436;8.672;2023-05-27T13:26:12;6.32;;;3.20;;
76256;SDS011;65074;50.436;8.672;2023-05-27T13:28:37;4.47;;;3.00;;
76256;SDS011;65074;50.436;8.672;2023-05-27T13:31:03;6.97;;;3.38;;
76256;SDS011;65074;50.436;8.672;2023-05-27T13:33:29;6.47;;;3.60;;
76256;SDS011;65074;50.436;8.672;2023-05-27T13:35:54;4.40;;;2.80;;
76256;SDS011;65074;50.436;8.672;2023-05-27T13:38:19;6.15;;;2.90;;
76256;SDS011;65074;50.436;8.672;2023-05-27T13:40:45;5.80;;;2.92;;
76256;SDS011;65074;50.436;8.672;2023-05-27T13:43:10;5.72;;;2.92;;
76256;SDS011;65074;50.436;8.672;2023-05-27T13:45:36;4.57;;;2.70;;
76256;SDS011;65074;50.436;8.672;2023-05-27T13:48:01;4.72;;;2.78;;
76256;SDS011;65074;50.436;8.672;2023-05-27T13:50:26;5.05;;;2.88;;
76256;SDS011;65074;50.436;8.672;2023-05-27T13:52:54;6.22;;;2.92;;
76256;SDS011;65074;50.436;8.672;2023-05-27T13:55:19;4.05;;;2.90;;
76256;SDS011;65074;50.436;8.672;2023-05-27T13:57:45;5.65;;;3.33;;
76256;SDS011;65074;50.436;8.672;2023-05-27T14:00:10;3.90;;;2.60;;
76256;SDS011;65074;50.436;8.672;2023-05-27T14:02:36;5.45;;;2.83;;
76256;SDS011;65074;50.436;8.672;2023-05-27T14:05:02;8.60;;;3.47;;
76256;SDS011;65074;50.436;8.672;2023-05-27T14:07:28;4.82;;;2.60;;
76256;SDS011;65074;50.436;8.672;2023-05-27T14:09:53;4.85;;;2.85;;
76256;SDS011;65074;50.436;8.672;2023-05-27T14:12:18;4.57;;;2.85;;
76256;SDS011;65074;50.436;8.672;2023-05-27T14:14:44;4.50;;;3.10;;
76256;SDS011;65074;50.436;8.672;2023-05-27T14:17:09;4.25;;;2.60;;
76256;SDS011;65074;50.436;8.672;2023-05-27T14:19:35;4.05;;;3.20;;
76256;SDS011;65074;50.436;8.672;2023-05-27T14:22:00;4.72;;;3.00;;
76256;SDS011;65074;50.436;8.672;2023-05-27T14:24:25;4.40;;;2.65;;
76256;SDS011;65074;50.436;8.672;2023-05-27T14:26:51;5.13;;;2.63;;
76256;SDS011;65074;50.436;8.672;2023-05-27T14:29:16;4.45;;;2.80;;
76256;SDS011;65074;50.436;8.672;2023-05-27T14:31:42;5.43;;;2.70;;
76256;SDS011;65074;50.436;8.672;2023-05-27T14:34:07;4.53;;;2.95;;
76256;SDS011;65074;50.436;8.672;2023-05-27T14:36:32;5.15;;;3.08;;
76256;SDS011;65074;50.436;8.672;2023-05-27T14:38:58;5.78;;;3.13;;
76256;SDS011;65074;50.436;8.672;2023-05-27T14:41:23;4.50;;;2.45;;
76256;SDS011;65074;50.436;8.672;2023-05-27T14:43:50;5.30;;;2.95;;
76256;SDS011;65074;50.436;8.672;2023-05-27T14:46:15;7.13;;;2.58;;
76256;SDS011;65074;50.436;8.672;2023-05-27T14:48:41;4.18;;;2.38;;
76256;SDS011;65074;50.436;8.672;2023-05-27T14:51:06;5.18;;;2.88;;
76256;SDS011;65074;50.436;8.672;2023-05-27T14:53:32;4.88;;;3.00;;
76256;SDS011;65074;50.436;8.672;2023-05-27T14:55:57;6.28;;;2.72;;
76256;SDS011;65074;50.436;8.672;2023-05-27T14:58:22;4.80;;;2.70;;
76256;SDS011;65074;50.436;8.672;2023-05-27T15:00:48;5.50;;;2.45;;
76256;SDS011;65074;50.436;8.672;2023-05-27T15:03:13;5.03;;;2.83;;
76256;SDS011;65074;50.436;8.672;2023-05-27T15:05:38;5.60;;;2.90;;
76256;SDS011;65074;50.436;8.672;2023-05-27T15:08:04;6.80;;;3.05;;
76256;SDS011;65074;50.436;8.672;2023-05-27T15:10:30;4.43;;;2.75;;
76256;SDS011;65074;50.436;8.672;2023-05-27T15:12:56;3.42;;;2.38;;